Flight Track Log - Related Links

Times and Time Zones

All times are in EDT time to prevent confusion due to time zone crossing. See the N830QS flight status page for this flight to view local times or setup timezone preferences in your user account.

Time Position Orientation Groundspeed Altitude Reporting Facility
EDT Latitude Longitude Course Direction KTS MPH feet Rate Location/Type
03:32PM 38.1872 -79.7746 72° East  Level Estimated
03:32PM 37.8594 -80.2581 72° East 329 379 9,500  Level Washington Center
03:34PM 37.8381 -80.1619 106° East 287 330 13,000 3,295 Climbing Washington Center
03:35PM 37.8542 -80.0656 78° East 261 300 16,200 3,025 Climbing Washington Center
03:35PM 37.8600 -79.9608 86° East 276 318 19,000 2,847 Climbing Washington Center
03:36PM 37.8667 -79.8375 86° East 298 343 21,800 2,182 Climbing Washington Center
03:38PM 37.8750 -79.7194 85° East 319 367 23,400 1,574 Climbing Washington Center
03:39PM 37.8814 -79.5908 86° East 334 384 25,000 1,613 Climbing Washington Center
03:39PM 37.8878 -79.4572 86° East 358 412 26,600 1,563 Climbing Washington Center
03:41PM 37.8942 -79.3233 86° East 370 426 28,100 1,525 Climbing Washington Center
03:42PM 37.9000 -79.2025 86° East 375 432 29,700 1,438 Climbing Washington Center
03:43PM 37.9081 -79.0711 86° East 380 437 31,000 661 Climbing Washington Center
03:43PM 37.9267 -78.9325 80° East 385 443 31,000  Level Washington Center
03:45PM 37.9408 -78.7936 83° East 391 450 31,000  Level Washington Center
03:46PM 37.9589 -78.6600 80° East 391 450 31,000  Level Washington Center
03:47PM 37.9750 -78.5183 82° East 381 438 31,000  Level Washington Center
03:48PM 37.9906 -78.3847 82° East 381 438 31,000  Level Washington Center
03:48PM 38.0061 -78.2586 81° East 376 433 31,000  Level Washington Center
03:50PM 38.0233 -78.1303 80° East 365 420 31,000  Level Washington Center
03:51PM 38.0800 -78.0186 57° Northeast 358 412 31,000  Level Washington Center
03:52PM 38.1342 -77.9094 58° Northeast 358 412 31,000  Level Washington Center
03:53PM 38.1906 -77.7978 57° Northeast 370 426 31,000  Level Washington Center
03:53PM 38.2447 -77.6883 58° Northeast 370 426 31,000  Level Washington Center
03:55PM 38.2944 -77.5864 58° Northeast 370 426 31,000  Level Washington Center
03:56PM 38.3483 -77.4767 58° Northeast 370 426 31,000  Level Washington Center
03:56PM 38.4042 -77.3642 58° Northeast 365 420 31,000  Level Washington Center
03:57PM 38.4578 -77.2567 57° Northeast 360 414 31,000  Level Washington Center
03:58PM 38.4969 -77.1331 68° East 360 414 31,000  Level Washington Center
04:00PM 38.5256 -77.0089 74° East 360 414 31,000  Level Washington Center
04:01PM 38.5519 -76.8819 75° East 360 414 31,000  Level Washington Center
04:02PM 38.5783 -76.7550 75° East 360 414 31,000  Level Washington Center
04:03PM 38.6044 -76.6331 75° East 354 407 31,000 -450 Level Washington Center
04:04PM 38.5889 -76.5081 99° East 349 402 30,100 -504 Descending Washington Center
04:04PM 38.5500 -76.3856 112° Southeast 336 387 30,000 -51 Descending Washington Center
04:05PM 38.4397 -76.3631 171° South 320 368 30,000  Level Washington Center
04:06PM 38.3289 -76.3989 194° South 331 381 30,000  Level Washington Center
04:08PM 38.2344 -76.5089 222° Southwest 345 397 30,000  Level Washington Center
04:09PM 38.1997 -76.6564 253° West 375 432 30,000  Level Washington Center
04:10PM 38.1817 -76.8122 262° West 409 471 30,000  Level Washington Center
04:10PM 38.1633 -76.9622 261° West 424 488 30,000  Level Washington Center
04:11PM 38.1447 -77.1150 261° West 434 499 30,000 -149 Level Washington Center
04:13PM 38.1239 -77.2706 260° West 444 511 29,700 -934 Descending Washington Center
04:14PM 38.1050 -77.4206 261° West 449 517 28,100 -857 Descending Washington Center
04:14PM 38.0858 -77.5756 261° West 449 517 28,000 -50 Descending Washington Center
04:16PM 38.0667 -77.7256 261° West 444 511 28,000  Level Washington Center
04:17PM 38.0472 -77.8778 261° West 444 511 28,000  Level Washington Center
04:17PM 38.0294 -78.0328 262° West 444 511 28,000  Level Washington Center
04:18PM 38.0039 -78.1639 256° West 444 511 28,000  Level Washington Center
04:20PM 37.9197 -78.2953 231° Southwest 431 496 28,000  Level Washington Center
04:21PM 37.8375 -78.4158 229° Southwest 437 503 28,000 -500 Level Washington Center
04:22PM 37.7556 -78.5308 228° Southwest 442 509 27,000 -1,240 Descending Washington Center
04:23PM 37.6822 -78.6331 228° Southwest 448 516 25,500 -1,488 Descending Washington Center
04:24PM 37.6064 -78.7428 229° Southwest 436 502 24,000 -1,450 Descending Washington Center
04:25PM 37.5306 -78.8497 228° Southwest 424 488 22,600 -1,017 Descending Washington Center
04:25PM 37.4522 -78.9589 228° Southwest 424 488 22,000 -305 Descending Washington Center
04:26PM 37.3697 -79.0753 228° Southwest 424 488 22,000  Level Washington Center
04:28PM 37.2936 -79.1789 227° Southwest 424 488 22,000  Level Washington Center
04:29PM 37.2172 -79.2875 229° Southwest 424 488 22,000  Level Washington Center
04:30PM 37.1431 -79.3986 230° Southwest 424 488 22,000  Level Washington Center
04:30PM 37.0706 -79.5069 230° Southwest 424 488 22,000 -814 Level Washington Center
04:31PM 36.9981 -79.6150 230° Southwest 419 482 20,400 -1,835 Descending Washington Center
04:33PM 36.9367 -79.7053 230° Southwest 409 471 18,300 -2,066 Descending Washington Center
04:34PM 36.8534 -79.8222 228° Southwest  Level FlightAware Approximate
04:41PM 36.0497 -79.9667 180° South  Level FlightAware Approximate
04:42PM 36.1000 -79.9333 15° North  Level FlightAware Approximate
04:43PM 36.1923 -79.8285 15° North  Level Estimated
04:44PM 36.1000 -79.9333 15° North  Level FlightAware Approximate
04:45PM 36.1923 -79.8285 15° North  Level Estimated
04:46PM 36.1000 -79.9333 15° North  Level FlightAware Approximate
04:47PM 36.1923 -79.8285 15° North  Level Estimated
04:48PM 36.1000 -79.9333 15° North  Level FlightAware Approximate
04:49PM 36.1923 -79.8285 15° North  Level Estimated
04:50PM 36.1000 -79.9333 15° North  Level FlightAware Approximate
04:51PM 36.1923 -79.8285 15° North  Level Estimated
04:52PM 36.1000 -79.9333 15° North  Level FlightAware Approximate
04:53PM 36.1923 -79.8285 15° North  Level Estimated
04:54PM 36.1000 -79.9333 15° North  Level FlightAware Approximate
04:55PM 36.1923 -79.8285 15° North  Level Estimated
04:56PM 36.1000 -79.9333 15° North  Level FlightAware Approximate
04:57PM 36.1923 -79.8285 15° North  Level Estimated
04:58PM 36.1000 -79.9333 15° North  Level FlightAware Approximate
04:59PM 36.1923 -79.8285 15° North  Level Estimated
05:00PM 36.1000 -79.9333 15° North  Level FlightAware Approximate
05:01PM 36.1923 -79.8285 15° North  Level Estimated
05:02PM 36.1000 -79.9333 15° North  Level FlightAware Approximate
05:03PM 36.1923 -79.8285 15° North  Level Estimated
05:04PM 36.1000 -79.9333 15° North  Level FlightAware Approximate

Login

Don't have an account? Register now (free) for customized features, flight alerts, and more!